メインページ
METAR-TAF:

METAR-TAF

空港 :

ソルトレイクシティ, ユタ州, アメリカ合衆国

ソルトレイクシティ国際空港

緯度: 40-46-41N, 経度: 111-58-10W, 海抜: 1288m

現時点の気象観測

当レポートは1時間13分前の09:54(UTC)に作成
南/南東の風 6kt
気温 9°C
湿度 61%
気圧 1014 hPa
視程: 16.1km
晴天

METAR: KSLC 200954Z 16006KT 10SM CLR 09/02 A2993 RMK AO2 SLP110 T00890022

時間: 05:07 (11:07 UTC)

予報

当レポートは2時間15分前の08:52(UTC)に作成
予報は20日の 09時(UTC)から 21日の 12時(UTC)まで有効
南/南東の風 6kt
視程: 10km
晴天
20日の 2100時(UTC)から
北/北西の風 6kt
視程: 10km
高度12000ftの雲は散在している
21日の 0200時(UTC)から
北/北西の風 11kt
視程: 10km
高度10000ftの千切れ雲あり
高度15000ftの曇り
21日の 1100時(UTC)から
の風 7kt
視程: 10km
高度8000ftの千切れ雲あり
高度12000ftの曇り

TAF: KSLC 200852Z 2009/2112 15006KT P6SM SKC FM202100 33006KT P6SM SCT120 FM210200 34011KT P6SM BKN100 OVC150 FM211100 35007KT P6SM BKN080 OVC120

4,000以上の空港の気象観測と天気予報(METAR報とTAF報)

利用可能な観測所は地図上に黄色い丸と赤い丸で示す。

丸の上にカーソルを重ねると観測所名を参照できる。

次にクリックすると気象観測と天気予報を参照できる。

マップの切り替え:黒色「×」印の緑ボタンをクリックして拡大、「-」印の緑ボタンをクリックして縮小、緑色の三角印をクリックして隣りの地図に切り替え


METAR-TAF: